Aérodrome :
LOGIN :

S'inscrire | Disclaimer

   EN    FR    IT 

 










Légende :    VFR   VFR Marginal   IFR   IFR Intensif   IFR Très Intensif
Visi : 
Plafond : 
>= 8 km
>= 3000ft
5 à 8 km
1000 à 3000 ft
1500m à 5 km
500 à 1000 ft
800 à 1500m
200 à 500 ft
< 800m
< 200 ft
Symboles :   Orages  Brouillard  Fortes neiges  Fortes précipitations  Vent > 20 kt
SIGMETs :   Divers  Orages  Givrage  Turbulence  Onde Orograph.  Cendres Volcan.







- Altitude de l'aérodrome : 102 ft
- Code IATA : CNG
- Voir les cartes d'approche


LFBG - Cognac

DERNIER METAR :
  • 222000Z AUTO 27006KT CAVOK 18/14 Q1016

METARs EXPIRÉS :
  • 221930Z AUTO 28006KT 9999 ///TCU 19/14 Q1016
  • 221900Z AUTO 26008KT 9999 ///TCU 19/15 Q1016
  • 221830Z AUTO 26008KT CAVOK 20/14 Q1015
  • 221800Z AUTO 25007KT CAVOK 22/13 Q1015
  • 221730Z AUTO 25006KT CAVOK 22/12 Q1015
  • 221700Z AUTO 26007KT CAVOK 24/11 Q1014

Prévision TAF périmée.
Pas de NOTAMs connus pour ce terrain.
1 SIGMET publié pour la FIR Bordeaux (LFBB) :
 
Orages noyés dans la masse
LFBB SIGMET 1 VALID 221900/222100 LFPW
LFBB BORDEAUX FIR/UIR EMBD TS FCST WI N4245 E00000 - N4300 W00145 - N4430 W00145 - N4430 W00100 - N4345 E00100 - N4245 E00000 TOP FL350 STNR INTSF=



MET'MAP, la Météo Aéronautique d'un coup d'oeil ! - Copyright ORBIFLY Décembre 2007 - Disclaimer

ORBIFLY MET'MAP TEAM :

Programmation & Développement : Alexandra Zaïnal
Conception & Développement : Baudouin d'Aumeries
Co-Programmation & Développement : Marc-Olivier Méhu
Soutien technique & logistique : Manuel Goepfert

Contact : metmap@orbifly.com




SOURCES & CREDITS :

   NOAA